Time;durP1;ratioP1;P1;durP2;ratioP2;P2;SDS_P1;SDS_P2;PMS_P1;PMS_P2;Temp;Humidity;BMP_temperature;BMP_pressure;BME280_temperature;BME280_humidity;BME280_pressure;Samples;Min_cycle;Max_cycle;Signal;HPM_P1;HPM_P2
2023/08/30 00:00:11;;;;;;;6.00;4.70;;;23.20;99.90;;;;;;6193263;28;89065;-69
2023/08/30 00:03:13;;;;;;;5.38;4.55;;;23.20;99.90;;;;;;6206166;28;89296;-69
2023/08/30 00:06:16;;;;;;;5.18;4.60;;;23.30;99.90;;;;;;6213784;28;89162;-69
2023/08/30 00:09:19;;;;;;;5.03;4.43;;;23.20;99.90;;;;;;6207295;28;89375;-69
2023/08/30 00:12:22;;;;;;;5.40;4.35;;;23.20;99.90;;;;;;6190593;28;89157;-70
2023/08/30 00:15:24;;;;;;;5.40;4.90;;;23.20;99.90;;;;;;6203089;28;89047;-69
2023/08/30 00:18:26;;;;;;;5.72;5.13;;;23.20;99.90;;;;;;6195521;28;88458;-69
2023/08/30 00:21:28;;;;;;;6.10;5.50;;;23.20;99.90;;;;;;6185517;28;88710;-70
2023/08/30 00:24:31;;;;;;;5.82;5.00;;;23.20;99.90;;;;;;6188687;28;89056;-70
2023/08/30 11:38:06;;;;;;;4.50;4.10;;;22.90;99.90;;;;;;6257656;22;86971;-66
2023/08/30 11:41:08;;;;;;;4.32;3.92;;;22.90;99.90;;;;;;6198262;28;88294;-66
2023/08/30 11:44:11;;;;;;;4.10;3.80;;;22.90;99.90;;;;;;6206690;28;89218;-67
2023/08/30 11:47:19;;;;;;;4.30;3.90;;;22.80;99.90;;;;;;6205648;28;89062;-66
2023/08/30 11:50:21;;;;;;;3.85;3.55;;;22.90;99.90;;;;;;6205381;28;89946;-67
2023/08/30 11:53:25;;;;;;;4.40;4.00;;;22.90;99.90;;;;;;6204366;28;87988;-66
2023/08/30 11:56:27;;;;;;;4.85;4.35;;;22.90;99.90;;;;;;6208193;28;89001;-67
2023/08/30 11:59:29;;;;;;;4.43;4.03;;;22.90;99.90;;;;;;6192832;28;89059;-66
2023/08/30 12:02:31;;;;;;;4.07;3.78;;;22.90;99.90;;;;;;6203942;28;89041;-66
2023/08/30 12:05:36;;;;;;;4.10;3.80;;;22.80;99.90;;;;;;6202141;28;89291;-66
2023/08/30 12:08:39;;;;;;;4.50;4.10;;;22.80;99.90;;;;;;6199593;28;89368;-66
2023/08/30 12:11:41;;;;;;;4.80;4.30;;;22.90;99.90;;;;;;6208635;28;88842;-66
2023/08/30 12:14:43;;;;;;;4.22;3.80;;;22.90;99.90;;;;;;6207982;28;89181;-66
2023/08/30 12:17:45;;;;;;;4.30;3.90;;;22.80;99.90;;;;;;6209222;28;89083;-66
2023/08/30 12:20:55;;;;;;;4.15;3.75;;;22.90;99.90;;;;;;6194126;28;90354;-67
2023/08/30 12:24:03;;;;;;;4.00;3.70;;;22.90;99.90;;;;;;6199424;28;88990;-66
2023/08/30 12:27:05;;;;;;;3.95;3.65;;;22.90;99.90;;;;;;6199534;28;89050;-66
2023/08/30 12:30:09;;;;;;;4.10;3.80;;;22.90;99.90;;;;;;6204745;28;89014;-66
2023/08/30 12:33:11;;;;;;;4.10;3.80;;;22.90;99.90;;;;;;6196587;28;88981;-66
2023/08/30 12:36:12;;;;;;;3.97;3.65;;;22.80;99.90;;;;;;6207751;28;89298;-66
2023/08/30 12:39:16;;;;;;;3.97;3.67;;;22.90;99.90;;;;;;6201919;28;89083;-66
2023/08/30 12:42:18;;;;;;;4.40;4.00;;;22.90;99.90;;;;;;6194399;28;88088;-66
2023/08/30 12:45:20;;;;;;;4.20;3.80;;;22.90;99.90;;;;;;6204020;28;89061;-67
2023/08/30 12:48:22;;;;;;;3.58;3.28;;;22.90;99.90;;;;;;6203368;28;89153;-66
2023/08/30 12:51:24;;;;;;;4.15;3.67;;;22.90;99.90;;;;;;6204269;28;88899;-67
2023/08/30 12:54:28;;;;;;;3.95;3.50;;;22.90;99.90;;;;;;6208532;28;89048;-66
2023/08/30 12:57:30;;;;;;;3.40;3.10;;;22.90;99.90;;;;;;6196937;28;89309;-67
2023/08/30 13:00:32;;;;;;;3.72;3.25;;;22.80;99.90;;;;;;6200523;28;87914;-66
2023/08/30 13:03:34;;;;;;;4.57;3.80;;;22.90;99.90;;;;;;6197005;28;89062;-66
2023/08/30 13:06:36;;;;;;;3.28;2.97;;;22.80;99.90;;;;;;6198637;28;88999;-67
2023/08/30 13:09:40;;;;;;;3.50;3.20;;;22.90;99.90;;;;;;6196821;28;89182;-67
2023/08/30 13:12:42;;;;;;;3.78;3.40;;;22.90;99.90;;;;;;6200246;28;88379;-66
2023/08/30 13:15:44;;;;;;;3.67;3.38;;;22.80;99.90;;;;;;6190171;28;87989;-66
2023/08/30 13:18:46;;;;;;;3.60;3.30;;;22.90;99.90;;;;;;6190485;28;88985;-66
2023/08/30 13:21:49;;;;;;;3.58;3.28;;;22.80;99.90;;;;;;6201572;28;90932;-67
2023/08/30 13:24:53;;;;;;;3.40;3.10;;;22.90;99.90;;;;;;6203322;28;90085;-67
2023/08/30 13:27:55;;;;;;;3.40;3.10;;;22.80;99.90;;;;;;6207112;28;88873;-66
2023/08/30 13:30:58;;;;;;;3.45;3.15;;;22.90;99.90;;;;;;6192574;28;89534;-67
2023/08/30 13:34:01;;;;;;;3.72;3.42;;;22.90;99.90;;;;;;6206511;28;88240;-67
2023/08/30 13:37:04;;;;;;;3.42;3.13;;;22.80;99.90;;;;;;6205291;28;88094;-67
2023/08/30 13:40:09;;;;;;;3.50;3.20;;;22.90;99.90;;;;;;6205120;28;89039;-66
2023/08/30 13:43:12;;;;;;;3.40;3.10;;;22.80;99.90;;;;;;6195609;28;88785;-66
2023/08/30 13:46:15;;;;;;;3.53;3.22;;;22.90;99.90;;;;;;6203541;28;89416;-66
2023/08/30 13:49:20;;;;;;;3.13;2.72;;;22.80;99.90;;;;;;6204524;28;89078;-67
2023/08/30 13:52:23;;;;;;;3.40;3.10;;;22.90;99.90;;;;;;6202285;28;89425;-66
2023/08/30 13:55:27;;;;;;;3.33;3.03;;;22.80;99.90;;;;;;6198421;28;88185;-67
2023/08/30 13:58:31;;;;;;;3.28;3.03;;;22.80;99.90;;;;;;6190391;28;87183;-67
2023/08/30 14:01:34;;;;;;;3.50;3.20;;;22.80;99.90;;;;;;6205332;28;88223;-67
2023/08/30 14:04:37;;;;;;;3.83;3.40;;;22.80;99.90;;;;;;6202159;28;88154;-67
2023/08/30 14:07:39;;;;;;;3.40;3.10;;;22.80;99.90;;;;;;6203329;28;89270;-67
2023/08/30 14:10:46;;;;;;;3.70;3.38;;;22.80;99.90;;;;;;6205422;28;89257;-67
2023/08/30 14:13:49;;;;;;;3.45;3.15;;;22.80;99.90;;;;;;6194165;28;87995;-67
2023/08/30 14:16:51;;;;;;;3.53;3.22;;;22.80;99.90;;;;;;6204880;28;89292;-67
2023/08/30 14:19:53;;;;;;;3.40;3.10;;;22.80;99.90;;;;;;6200497;28;89044;-67
2023/08/30 14:22:56;;;;;;;3.40;3.10;;;22.90;99.90;;;;;;6205608;28;90500;-67
2023/08/30 14:26:01;;;;;;;3.50;3.20;;;22.80;99.90;;;;;;6198392;28;88132;-67
2023/08/30 14:29:03;;;;;;;3.63;2.95;;;22.80;99.90;;;;;;6198732;28;89277;-67
2023/08/30 14:32:07;;;;;;;3.50;3.20;;;22.90;99.90;;;;;;6191043;28;88011;-67
2023/08/30 14:35:11;;;;;;;4.20;3.35;;;22.80;99.90;;;;;;6204584;28;88008;-67
2023/08/30 14:38:14;;;;;;;3.00;2.70;;;22.90;99.90;;;;;;6201045;28;88214;-67
2023/08/30 14:41:19;;;;;;;3.30;3.00;;;22.80;99.90;;;;;;6198544;28;88428;-67
2023/08/30 14:44:25;;;;;;;3.17;2.97;;;22.80;99.90;;;;;;6188428;28;87338;-67
2023/08/30 14:47:30;;;;;;;3.78;3.45;;;22.80;99.90;;;;;;6197100;28;88177;-67
2023/08/30 14:50:34;;;;;;;3.45;3.15;;;22.80;99.90;;;;;;6202608;28;87044;-67
2023/08/30 14:53:37;;;;;;;3.40;3.10;;;22.90;99.90;;;;;;6203986;28;88962;-67
2023/08/30 14:56:42;;;;;;;3.30;3.00;;;22.80;99.90;;;;;;6204401;28;87936;-67
2023/08/30 14:59:46;;;;;;;3.22;3.03;;;22.80;99.90;;;;;;6204680;28;88129;-67
2023/08/30 15:02:49;;;;;;;3.30;3.00;;;22.90;99.90;;;;;;6197619;28;87997;-67
2023/08/30 15:05:55;;;;;;;3.22;3.00;;;22.80;99.90;;;;;;6199623;28;88234;-67
2023/08/30 15:09:00;;;;;;;3.30;3.00;;;22.80;99.90;;;;;;6199730;28;88020;-67
2023/08/30 15:12:06;;;;;;;3.40;3.10;;;22.80;99.90;;;;;;6204067;28;88087;-67
2023/08/30 15:15:10;;;;;;;3.13;2.90;;;22.80;99.90;;;;;;6204934;28;87288;-66
2023/08/30 15:18:14;;;;;;;3.15;2.90;;;22.80;99.90;;;;;;6193106;28;88030;-66
2023/08/30 15:21:17;;;;;;;3.65;3.35;;;22.80;99.90;;;;;;6204881;28;87949;-67
2023/08/30 15:24:21;;;;;;;3.30;3.00;;;22.80;99.90;;;;;;6196367;28;90488;-66
2023/08/30 15:27:27;;;;;;;6.38;3.38;;;22.80;99.90;;;;;;6201105;28;88029;-67
2023/08/30 15:30:30;;;;;;;3.42;2.90;;;22.80;99.90;;;;;;6196613;28;88102;-67
2023/08/30 15:33:34;;;;;;;6.22;3.60;;;22.80;99.90;;;;;;6201011;28;87997;-67
2023/08/30 15:36:38;;;;;;;3.88;3.28;;;22.80;99.90;;;;;;6200825;28;87979;-67
2023/08/30 15:39:41;;;;;;;4.07;2.80;;;22.80;99.90;;;;;;6196415;28;88068;-67
2023/08/30 15:42:47;;;;;;;3.40;3.10;;;22.80;99.90;;;;;;6189985;28;88159;-67
2023/08/30 15:45:50;;;;;;;3.33;3.03;;;22.80;99.90;;;;;;6204775;28;87246;-67
2023/08/30 15:48:55;;;;;;;2.78;2.58;;;22.80;99.90;;;;;;6207582;28;88657;-67
2023/08/30 15:51:59;;;;;;;4.15;2.90;;;22.80;99.90;;;;;;6202824;28;88509;-67
2023/08/30 15:55:02;;;;;;;3.30;3.00;;;22.80;99.90;;;;;;6205830;28;89311;-67
2023/08/30 15:58:08;;;;;;;3.72;3.10;;;22.80;99.90;;;;;;6195733;28;88042;-67
2023/08/30 16:01:13;;;;;;;5.07;3.03;;;22.80;99.90;;;;;;6197621;28;88027;-67
2023/08/30 16:04:17;;;;;;;4.45;3.08;;;22.90;99.90;;;;;;6205377;28;87709;-67
2023/08/30 16:07:22;;;;;;;3.55;3.20;;;22.80;99.90;;;;;;6210397;28;87966;-67
2023/08/30 16:10:29;;;;;;;3.00;2.72;;;22.80;99.90;;;;;;6197356;28;88221;-67
2023/08/30 16:13:36;;;;;;;2.92;2.70;;;22.90;99.90;;;;;;6213264;28;88087;-66
2023/08/30 16:16:44;;;;;;;3.35;2.78;;;22.80;99.90;;;;;;6204238;28;87309;-66
2023/08/30 16:19:48;;;;;;;3.60;2.78;;;22.90;99.90;;;;;;6203069;28;88031;-66
2023/08/30 16:22:57;;;;;;;5.13;3.13;;;22.80;99.90;;;;;;6205872;28;88027;-66
2023/08/30 16:26:02;;;;;;;4.35;2.92;;;22.80;99.90;;;;;;6203297;28;88038;-66
2023/08/30 16:29:10;;;;;;;3.75;2.90;;;22.90;99.90;;;;;;6206093;28;88242;-62
2023/08/30 16:32:18;;;;;;;3.45;2.65;;;22.90;99.90;;;;;;6187530;28;88046;-65
2023/08/30 16:35:25;;;;;;;6.35;3.03;;;22.90;99.90;;;;;;6207653;28;88148;-65
2023/08/30 16:38:29;;;;;;;4.45;3.00;;;22.90;99.90;;;;;;6204973;28;89577;-64
2023/08/30 16:41:34;;;;;;;3.15;2.83;;;22.90;99.90;;;;;;6197371;28;89107;-65
2023/08/30 16:44:40;;;;;;;4.22;2.80;;;22.90;99.90;;;;;;6201804;28;88313;-65
2023/08/30 16:47:47;;;;;;;3.90;2.60;;;22.90;99.90;;;;;;6189790;28;87445;-66
2023/08/30 16:50:51;;;;;;;5.10;3.00;;;22.90;99.90;;;;;;6201378;28;87895;-65
2023/08/30 16:53:59;;;;;;;3.33;2.72;;;23.00;99.90;;;;;;6205114;28;88092;-65
2023/08/30 16:57:03;;;;;;;3.92;2.60;;;23.00;99.90;;;;;;6200665;28;88957;-72
2023/08/30 17:00:14;;;;;;;3.28;2.70;;;23.00;99.90;;;;;;6197618;28;88219;-64
2023/08/30 17:03:21;;;;;;;4.05;2.70;;;23.00;99.90;;;;;;6204930;28;88689;-65
2023/08/30 17:06:28;;;;;;;4.70;2.80;;;23.00;99.90;;;;;;6199124;28;88232;-65
2023/08/30 17:09:37;;;;;;;3.83;2.65;;;23.00;99.90;;;;;;6201517;28;88181;-65
2023/08/30 17:12:44;;;;;;;4.85;2.80;;;23.00;99.90;;;;;;6195926;28;87892;-65
2023/08/30 17:15:51;;;;;;;4.75;2.72;;;23.00;99.90;;;;;;6198993;28;88207;-65
2023/08/30 17:18:55;;;;;;;5.82;3.08;;;23.00;99.90;;;;;;6198286;28;87306;-65
2023/08/30 17:21:59;;;;;;;9.52;3.40;;;23.00;99.90;;;;;;6205557;28;88033;-66
2023/08/30 17:25:07;;;;;;;10.77;4.30;;;23.00;99.90;;;;;;6204830;28;88432;-65
2023/08/30 17:28:13;;;;;;;7.05;2.88;;;23.00;99.90;;;;;;6206338;28;91292;-65
2023/08/30 17:31:26;;;;;;;5.78;3.00;;;23.00;99.90;;;;;;6208097;28;88497;-65
2023/08/30 17:34:31;;;;;;;7.75;3.10;;;23.00;99.90;;;;;;6206534;28;88112;-65
2023/08/30 17:37:37;;;;;;;6.95;2.88;;;23.00;99.90;;;;;;6204000;28;87973;-65
2023/08/30 17:40:47;;;;;;;7.60;3.72;;;22.90;99.90;;;;;;6151942;28;88458;-65
2023/08/30 17:44:00;;;;;;;7.78;3.38;;;23.00;99.90;;;;;;6205177;28;88056;-65
2023/08/30 17:47:06;;;;;;;11.43;3.47;;;22.90;99.90;;;;;;6212737;28;88484;-65
2023/08/30 17:50:15;;;;;;;7.13;3.40;;;23.00;99.90;;;;;;6208079;28;87280;-65
2023/08/30 17:53:21;;;;;;;8.30;3.47;;;22.90;99.90;;;;;;6206321;28;88229;-65
2023/08/30 17:56:26;;;;;;;7.05;3.50;;;22.90;99.90;;;;;;6203481;28;88460;-65
2023/08/30 17:59:33;;;;;;;6.43;3.40;;;22.90;99.90;;;;;;6194542;28;88050;-65
2023/08/30 18:02:41;;;;;;;6.25;3.30;;;22.90;99.90;;;;;;6202325;28;88068;-65
2023/08/30 18:05:50;;;;;;;7.95;3.33;;;22.90;99.90;;;;;;6203427;28;88662;-65
2023/08/30 18:09:11;;;;;;;7.47;3.53;;;22.90;99.90;;;;;;6200234;28;88340;-65
2023/08/30 18:12:19;;;;;;;6.18;3.28;;;22.90;99.90;;;;;;6201383;28;88105;-65
2023/08/30 18:15:23;;;;;;;5.78;3.50;;;22.90;99.90;;;;;;6200151;28;88122;-65
2023/08/30 18:18:30;;;;;;;7.43;3.15;;;22.90;99.90;;;;;;6198631;28;88022;-65
2023/08/30 18:21:38;;;;;;;9.40;3.60;;;22.90;99.90;;;;;;6206474;28;87180;-66
2023/08/30 18:24:46;;;;;;;5.80;3.35;;;22.90;99.90;;;;;;6197925;28;88325;-66
2023/08/30 18:27:58;;;;;;;5.45;3.05;;;22.90;99.90;;;;;;6192880;28;88104;-66
2023/08/30 18:31:03;;;;;;;4.55;3.20;;;22.90;99.90;;;;;;6169265;28;88964;-66
2023/08/30 18:34:19;;;;;;;7.63;3.00;;;22.80;99.90;;;;;;6197179;28;86966;-66
2023/08/30 18:37:23;;;;;;;3.10;2.78;;;22.80;99.90;;;;;;6199854;28;88112;-66
2023/08/30 18:40:33;;;;;;;3.05;2.47;;;22.80;99.90;;;;;;6193826;28;88170;-66
2023/08/30 18:43:38;;;;;;;3.78;2.60;;;22.80;99.90;;;;;;6204603;28;90909;-66
2023/08/30 18:46:44;;;;;;;3.95;2.75;;;22.80;99.90;;;;;;6205741;28;87703;-66
2023/08/30 18:49:50;;;;;;;3.67;2.88;;;22.80;99.90;;;;;;6199408;28;88061;-66
2023/08/30 18:52:58;;;;;;;4.95;2.58;;;22.80;99.90;;;;;;6202681;28;87288;-66
2023/08/30 18:56:14;;;;;;;3.58;2.65;;;22.80;99.90;;;;;;6204437;28;88082;-66
2023/08/30 18:59:20;;;;;;;2.65;2.45;;;22.80;99.90;;;;;;6204544;28;90514;-66
2023/08/30 19:02:24;;;;;;;4.35;2.38;;;22.80;99.90;;;;;;6203536;28;90170;-66
2023/08/30 19:05:35;;;;;;;3.97;2.50;;;22.80;99.90;;;;;;6200774;28;88012;-66
2023/08/30 19:08:41;;;;;;;2.70;2.50;;;22.80;99.90;;;;;;6202830;28;88064;-66
2023/08/30 19:11:50;;;;;;;2.97;2.60;;;22.80;99.90;;;;;;6192261;28;87069;-65
2023/08/30 19:14:57;;;;;;;3.53;2.60;;;22.80;99.90;;;;;;6201439;28;89164;-65
2023/08/30 19:18:01;;;;;;;3.50;2.78;;;22.80;99.90;;;;;;6205762;28;89610;-65
2023/08/30 19:21:14;;;;;;;2.85;2.53;;;22.80;99.90;;;;;;6204557;28;88027;-65
2023/08/30 19:24:21;;;;;;;2.95;2.50;;;22.80;99.90;;;;;;6194447;28;87252;-65
2023/08/30 19:27:28;;;;;;;2.97;2.50;;;22.80;99.90;;;;;;6207515;28;88233;-65
2023/08/30 19:30:35;;;;;;;3.10;2.40;;;22.70;99.90;;;;;;6209221;28;88012;-65
2023/08/30 19:33:43;;;;;;;3.15;2.28;;;22.80;99.90;;;;;;6208803;28;89238;-65
2023/08/30 19:36:50;;;;;;;4.07;2.95;;;22.70;99.90;;;;;;6206797;28;88084;-65
2023/08/30 19:39:54;;;;;;;2.67;2.42;;;22.70;99.90;;;;;;6199410;28;88055;-65
2023/08/30 19:43:01;;;;;;;2.50;2.30;;;22.80;99.90;;;;;;6197737;28;87097;-65
2023/08/30 19:46:07;;;;;;;3.22;2.72;;;22.70;99.90;;;;;;6200947;28;88199;-65
2023/08/30 19:49:11;;;;;;;2.80;2.50;;;22.70;99.90;;;;;;6201662;28;89411;-65
2023/08/30 19:52:18;;;;;;;2.53;2.33;;;22.80;99.90;;;;;;6204076;28;89441;-65
2023/08/30 19:55:25;;;;;;;3.33;2.33;;;22.80;99.90;;;;;;6206065;28;87285;-66
2023/08/30 19:58:29;;;;;;;2.58;2.35;;;22.70;99.90;;;;;;6206008;28;87848;-65
2023/08/30 20:01:34;;;;;;;3.13;2.20;;;22.80;99.90;;;;;;6207413;28;88221;-65
2023/08/30 20:04:47;;;;;;;2.65;2.40;;;22.80;99.90;;;;;;6201757;28;89050;-65
2023/08/30 20:07:56;;;;;;;2.90;2.45;;;22.70;99.90;;;;;;6191335;28;88242;-65
2023/08/30 20:11:11;;;;;;;2.92;2.63;;;22.70;99.90;;;;;;6202495;28;87029;-65
2023/08/30 20:14:22;;;;;;;2.58;2.30;;;22.80;99.90;;;;;;6203765;28;88026;-65
2023/08/30 20:17:29;;;;;;;3.90;2.55;;;22.70;99.90;;;;;;6198843;28;89621;-65
2023/08/30 20:20:39;;;;;;;2.97;2.40;;;22.80;99.90;;;;;;6199656;28;88115;-65
2023/08/30 20:23:45;;;;;;;2.33;2.13;;;22.80;99.90;;;;;;6205694;28;88549;-65
2023/08/30 20:26:54;;;;;;;3.75;2.72;;;22.70;99.90;;;;;;6203303;28;87393;-66
2023/08/30 20:29:58;;;;;;;2.97;2.67;;;22.70;99.90;;;;;;6202134;28;88364;-65
2023/08/30 20:33:02;;;;;;;2.55;2.35;;;22.80;99.90;;;;;;6206939;28;88100;-65
2023/08/30 20:36:10;;;;;;;3.13;2.50;;;22.70;99.90;;;;;;6213648;28;88969;-65
2023/08/30 20:39:16;;;;;;;2.78;2.55;;;22.70;99.90;;;;;;6124760;28;2173007;-65
2023/08/30 20:42:30;;;;;;;2.70;2.50;;;22.70;99.90;;;;;;6204396;28;88012;-65
2023/08/30 20:45:35;;;;;;;4.07;2.72;;;22.70;99.90;;;;;;6203919;28;88338;-65
2023/08/30 20:48:39;;;;;;;2.67;2.47;;;22.70;99.90;;;;;;6209750;28;88108;-65
2023/08/30 20:51:43;;;;;;;3.22;2.60;;;22.70;99.90;;;;;;6195924;28;88245;-65
2023/08/30 20:54:51;;;;;;;3.15;2.78;;;22.70;99.90;;;;;;6197694;28;88354;-65
2023/08/30 20:57:57;;;;;;;3.33;2.97;;;22.70;99.90;;;;;;6206528;28;87350;-65
2023/08/30 21:01:00;;;;;;;3.22;2.50;;;22.70;99.90;;;;;;6195541;28;88344;-65
2023/08/30 21:04:03;;;;;;;3.15;2.80;;;22.70;99.90;;;;;;6204096;28;88269;-65
2023/08/30 21:07:05;;;;;;;2.92;2.60;;;22.70;99.90;;;;;;6207163;28;89686;-65
2023/08/30 21:10:09;;;;;;;4.07;3.35;;;22.70;99.90;;;;;;6194906;28;89409;-65
2023/08/30 21:13:11;;;;;;;3.15;2.85;;;22.70;99.90;;;;;;6205031;28;87981;-65
2023/08/30 21:16:13;;;;;;;3.35;3.05;;;22.70;99.90;;;;;;6202985;28;89157;-65
2023/08/30 21:19:15;;;;;;;3.45;3.15;;;22.70;99.90;;;;;;6195715;28;88038;-66
2023/08/30 21:22:17;;;;;;;3.20;2.90;;;22.70;99.90;;;;;;6204282;28;89359;-65
2023/08/30 21:25:22;;;;;;;4.45;3.13;;;22.70;99.90;;;;;;6203960;28;89154;-65
2023/08/30 21:28:24;;;;;;;3.58;3.28;;;22.70;99.90;;;;;;6199478;28;88323;-65
2023/08/30 21:31:26;;;;;;;4.05;3.38;;;22.70;99.90;;;;;;6197676;28;89095;-65
2023/08/30 21:34:28;;;;;;;3.67;3.38;;;22.70;99.90;;;;;;6198253;28;88994;-65
2023/08/30 21:37:30;;;;;;;4.35;3.95;;;22.70;99.90;;;;;;6198378;28;90035;-65
2023/08/30 21:40:36;;;;;;;4.78;4.00;;;22.70;99.90;;;;;;6201802;28;89350;-65
2023/08/30 21:43:38;;;;;;;4.25;3.85;;;22.70;99.90;;;;;;6207442;28;88092;-65
2023/08/30 21:46:40;;;;;;;4.18;3.58;;;22.70;99.90;;;;;;6206593;28;88413;-65
2023/08/30 21:49:42;;;;;;;4.35;3.95;;;22.70;99.90;;;;;;6212901;28;89322;-65
2023/08/30 21:52:44;;;;;;;4.28;3.88;;;22.70;99.90;;;;;;6198702;28;89047;-66
2023/08/30 21:55:47;;;;;;;5.15;4.70;;;22.70;99.90;;;;;;6195232;28;89173;-66
2023/08/30 21:58:53;;;;;;;4.60;4.20;;;22.70;99.90;;;;;;6206533;28;88640;-65
2023/08/30 22:01:55;;;;;;;4.72;4.00;;;22.70;99.90;;;;;;6203608;28;89174;-65
2023/08/30 22:04:57;;;;;;;5.10;4.60;;;22.70;99.90;;;;;;6188777;28;89283;-65
2023/08/30 22:07:59;;;;;;;4.88;4.45;;;22.70;99.90;;;;;;6204390;28;90263;-66
2023/08/30 22:11:08;;;;;;;4.90;4.40;;;22.70;99.90;;;;;;6188018;28;89034;-65
2023/08/30 22:14:10;;;;;;;5.57;4.90;;;22.70;99.90;;;;;;6202727;28;89237;-65
2023/08/30 22:17:12;;;;;;;5.03;4.60;;;22.70;99.90;;;;;;6199040;28;89068;-65
2023/08/30 22:20:15;;;;;;;5.47;4.97;;;22.70;99.90;;;;;;6196949;28;89008;-66
2023/08/30 22:23:18;;;;;;;5.90;5.32;;;22.70;99.90;;;;;;6202306;28;88023;-65
2023/08/30 22:26:21;;;;;;;6.35;5.68;;;22.70;99.90;;;;;;6206687;28;88182;-65
2023/08/30 22:29:23;;;;;;;5.75;5.25;;;22.70;99.90;;;;;;6206064;28;88334;-65
2023/08/30 22:32:25;;;;;;;7.10;5.93;;;22.70;99.90;;;;;;6197415;28;89074;-65
2023/08/30 22:35:27;;;;;;;6.47;5.88;;;22.60;99.90;;;;;;6198014;28;88297;-65
2023/08/30 22:38:29;;;;;;;6.72;5.95;;;22.70;99.90;;;;;;6200371;28;90123;-65
2023/08/30 22:41:33;;;;;;;6.88;5.80;;;22.70;99.90;;;;;;6204333;28;90146;-65
2023/08/30 22:44:35;;;;;;;6.85;6.15;;;22.70;99.90;;;;;;6198533;28;89065;-65
2023/08/30 22:47:37;;;;;;;6.30;5.70;;;22.70;99.90;;;;;;6198026;28;89085;-66
2023/08/30 22:50:39;;;;;;;6.82;6.13;;;22.70;99.90;;;;;;6200772;28;88519;-66
2023/08/30 22:53:41;;;;;;;5.80;5.25;;;22.70;99.90;;;;;;6186451;28;89262;-66
2023/08/30 22:56:44;;;;;;;7.10;6.40;;;22.70;99.90;;;;;;6197997;28;88987;-65
2023/08/30 22:59:46;;;;;;;6.53;5.22;;;22.70;99.90;;;;;;6199424;28;88284;-65
2023/08/30 23:02:50;;;;;;;6.22;5.63;;;22.70;99.90;;;;;;6191858;28;88960;-66
2023/08/30 23:05:52;;;;;;;7.18;6.47;;;22.70;99.90;;;;;;6193815;28;89322;-66
2023/08/30 23:08:54;;;;;;;7.25;6.55;;;22.70;99.90;;;;;;6200382;28;90099;-65
2023/08/30 23:11:57;;;;;;;7.13;6.43;;;22.70;99.90;;;;;;6205133;28;89400;-66
2023/08/30 23:14:59;;;;;;;7.00;6.30;;;22.60;99.90;;;;;;6196145;28;89110;-66
2023/08/30 23:18:01;;;;;;;7.25;6.63;;;22.70;99.90;;;;;;6205614;28;89053;-65
2023/08/30 23:21:03;;;;;;;7.78;7.07;;;22.70;99.90;;;;;;6203692;28;88999;-66
2023/08/30 23:24:06;;;;;;;7.97;7.18;;;22.60;99.90;;;;;;6197230;28;89502;-66
2023/08/30 23:27:10;;;;;;;8.10;7.30;;;22.60;99.90;;;;;;6200113;28;89020;-66
2023/08/30 23:30:12;;;;;;;7.88;7.07;;;22.70;99.90;;;;;;6203701;28;87223;-65
2023/08/30 23:33:15;;;;;;;8.45;6.78;;;22.60;99.90;;;;;;6191443;28;89319;-66
2023/08/30 23:36:17;;;;;;;8.02;7.22;;;22.70;99.90;;;;;;6192526;28;89059;-65
2023/08/30 23:39:18;;;;;;;7.50;6.68;;;22.70;99.90;;;;;;6198459;28;90021;-65
2023/08/30 23:42:22;;;;;;;7.88;7.07;;;22.70;99.90;;;;;;6204491;28;88933;-66
2023/08/30 23:45:25;;;;;;;8.00;7.25;;;22.70;99.90;;;;;;6204331;28;89160;-66
2023/08/30 23:48:27;;;;;;;8.20;7.38;;;22.70;99.90;;;;;;6204185;28;88137;-65
2023/08/30 23:51:29;;;;;;;9.55;8.35;;;22.70;99.90;;;;;;6195096;28;89032;-66
2023/08/30 23:54:31;;;;;;;7.53;6.78;;;22.60;99.90;;;;;;6192509;28;89137;-65
2023/08/30 23:57:35;;;;;;;7.97;7.18;;;22.60;99.90;;;;;;6194902;28;94381;-66
